Time;durP1;ratioP1;P1;durP2;ratioP2;P2;SDS_P1;SDS_P2;PMS_P1;PMS_P2;Temp;Humidity;BMP_temperature;BMP_pressure;BME280_temperature;BME280_humidity;BME280_pressure;Samples;Min_cycle;Max_cycle;Signal;HPM_P1;HPM_P2
2023/05/27 00:02:17;;;;;;;19.38;5.13;;;7.40;99.90;;;;;;4995865;28;20038;-78
2023/05/27 00:04:42;;;;;;;15.27;4.75;;;7.40;99.90;;;;;;4991695;28;20058;-78
2023/05/27 00:07:08;;;;;;;19.25;6.05;;;7.30;99.90;;;;;;4969317;28;20098;-78
2023/05/27 00:09:34;;;;;;;19.75;5.50;;;7.30;99.90;;;;;;5009508;28;20045;-79
2023/05/27 00:12:00;;;;;;;18.73;5.53;;;7.20;99.90;;;;;;5003630;28;20044;-78
2023/05/27 00:14:26;;;;;;;17.83;5.45;;;7.20;99.90;;;;;;5004063;28;20045;-79
2023/05/27 00:16:51;;;;;;;15.60;5.40;;;7.20;99.90;;;;;;4995354;28;20041;-79
2023/05/27 00:19:17;;;;;;;15.05;5.40;;;7.20;99.90;;;;;;4992583;28;20163;-79
2023/05/27 00:21:43;;;;;;;12.82;5.25;;;7.10;99.90;;;;;;5010718;28;20505;-79
2023/05/27 00:24:10;;;;;;;19.65;5.53;;;7.10;99.90;;;;;;5016093;28;20037;-78
2023/05/27 00:26:35;;;;;;;20.95;5.13;;;7.10;99.90;;;;;;5016733;28;20056;-77
2023/05/27 00:29:01;;;;;;;17.30;5.63;;;7.00;99.90;;;;;;5018140;28;20037;-77
2023/05/27 00:31:27;;;;;;;14.27;5.90;;;7.00;99.90;;;;;;4983276;28;20694;-78
2023/05/27 00:33:53;;;;;;;16.52;6.13;;;7.00;99.90;;;;;;5019907;28;20052;-77
2023/05/27 00:36:18;;;;;;;15.50;5.15;;;6.90;99.90;;;;;;5008453;28;20063;-77
2023/05/27 00:38:44;;;;;;;11.73;5.88;;;6.90;99.90;;;;;;4996689;28;20046;-77
2023/05/27 00:41:13;;;;;;;17.55;5.85;;;6.90;99.90;;;;;;5001114;28;20037;-77
2023/05/27 00:43:39;;;;;;;16.88;5.90;;;6.90;99.90;;;;;;5019017;28;20042;-77
2023/05/27 00:46:05;;;;;;;15.50;5.40;;;6.80;99.90;;;;;;5023503;28;20053;-78
2023/05/27 00:48:31;;;;;;;16.23;5.53;;;6.80;99.90;;;;;;4986501;28;20064;-79
2023/05/27 00:50:57;;;;;;;21.83;6.43;;;6.80;99.90;;;;;;4992589;28;20034;-79
2023/05/27 00:53:24;;;;;;;22.15;5.35;;;6.80;99.90;;;;;;5000964;28;20084;-79
2023/05/27 00:55:53;;;;;;;23.25;6.15;;;6.80;99.90;;;;;;4996566;28;20125;-79
2023/05/27 00:58:21;;;;;;;16.95;6.35;;;6.90;99.90;;;;;;5001307;28;20069;-79
2023/05/27 01:00:50;;;;;;;17.63;6.03;;;6.80;99.90;;;;;;5000583;28;20041;-79
2023/05/27 01:03:16;;;;;;;18.13;6.30;;;6.80;99.90;;;;;;5019069;28;20046;-78
2023/05/27 01:05:42;;;;;;;17.30;5.70;;;6.70;99.90;;;;;;5013205;28;20584;-77
2023/05/27 01:08:29;;;;;;;16.67;6.72;;;6.70;99.90;;;;;;5003236;28;20045;-77
2023/05/27 01:10:56;;;;;;;13.82;5.00;;;6.80;99.90;;;;;;5020816;28;20080;-77
2023/05/27 01:13:47;;;;;;;14.60;4.85;;;6.70;99.90;;;;;;5020015;28;20037;-77
2023/05/27 01:16:16;;;;;;;18.33;5.90;;;6.60;99.90;;;;;;5017552;28;20490;-77
2023/05/27 01:18:44;;;;;;;14.85;5.57;;;6.60;99.90;;;;;;5024666;28;20048;-77
2023/05/27 01:21:12;;;;;;;19.83;6.05;;;6.50;99.90;;;;;;5019801;28;21712;-77
2023/05/27 01:23:40;;;;;;;17.63;5.60;;;6.50;99.90;;;;;;4991590;28;20100;-77
2023/05/27 01:26:06;;;;;;;18.75;5.85;;;6.60;99.90;;;;;;5012811;28;20153;-77
2023/05/27 01:28:32;;;;;;;19.13;6.57;;;6.60;99.90;;;;;;5010580;28;20160;-77
2023/05/27 01:31:12;;;;;;;16.45;6.88;;;6.50;99.90;;;;;;4982623;28;20069;-77
2023/05/27 01:33:40;;;;;;;22.88;6.00;;;6.50;99.90;;;;;;4995403;28;20046;-77
2023/05/27 01:36:14;;;;;;;18.65;6.07;;;6.50;99.90;;;;;;5016290;28;20045;-78
2023/05/27 01:38:47;;;;;;;17.17;6.00;;;6.40;99.90;;;;;;5029731;28;20037;-77
2023/05/27 01:41:15;;;;;;;15.93;6.47;;;6.40;99.90;;;;;;5024503;28;20073;-77
2023/05/27 01:43:42;;;;;;;27.08;6.68;;;6.40;99.90;;;;;;4992650;28;20128;-77
2023/05/27 01:46:08;;;;;;;19.38;5.50;;;6.30;99.90;;;;;;5016671;28;20499;-77
2023/05/27 01:48:33;;;;;;;29.90;6.50;;;6.40;99.90;;;;;;5014192;28;20132;-77
2023/05/27 01:50:59;;;;;;;18.73;6.40;;;6.30;99.90;;;;;;5011672;28;20065;-77
2023/05/27 01:53:25;;;;;;;14.82;6.20;;;6.30;99.90;;;;;;4996274;28;20136;-78
2023/05/27 01:55:51;;;;;;;22.38;6.22;;;6.20;99.90;;;;;;5000035;28;20042;-78
2023/05/27 01:58:16;;;;;;;17.63;6.97;;;6.20;99.90;;;;;;4999687;28;20483;-77
2023/05/27 02:00:42;;;;;;;19.85;6.45;;;6.20;99.90;;;;;;4980463;28;20120;-78
2023/05/27 02:03:08;;;;;;;29.88;6.35;;;6.20;99.90;;;;;;5021892;28;20040;-77
2023/05/27 02:05:35;;;;;;;20.35;7.30;;;6.20;99.90;;;;;;5005368;28;20128;-77
2023/05/27 02:08:01;;;;;;;21.13;6.93;;;6.20;99.90;;;;;;4986218;28;20414;-77
2023/05/27 02:10:28;;;;;;;20.33;6.53;;;6.20;99.90;;;;;;5001929;28;20478;-78
2023/05/27 02:12:54;;;;;;;24.13;6.72;;;6.20;99.90;;;;;;5007275;28;20037;-77
2023/05/27 02:15:23;;;;;;;21.65;6.78;;;6.10;99.90;;;;;;4991226;28;20037;-78
2023/05/27 02:17:54;;;;;;;19.42;6.88;;;6.20;99.90;;;;;;4992465;28;20072;-77
2023/05/27 02:20:23;;;;;;;13.80;6.38;;;6.20;99.90;;;;;;4994023;28;20051;-78
2023/05/27 02:22:52;;;;;;;17.90;6.60;;;6.20;99.90;;;;;;4985811;28;20379;-77
2023/05/27 02:25:18;;;;;;;17.70;6.82;;;6.20;99.90;;;;;;4988720;28;20045;-77
2023/05/27 02:27:48;;;;;;;18.05;6.53;;;6.20;99.90;;;;;;4997295;28;20530;-77
2023/05/27 02:30:14;;;;;;;27.35;7.45;;;6.20;99.90;;;;;;5002938;28;20083;-77
2023/05/27 02:32:40;;;;;;;16.48;6.50;;;6.20;99.90;;;;;;5003609;28;20525;-78
2023/05/27 02:35:07;;;;;;;21.30;6.80;;;6.10;99.90;;;;;;4978190;28;20080;-77
2023/05/27 02:37:33;;;;;;;16.42;5.78;;;6.10;99.90;;;;;;4995935;28;20337;-77
2023/05/27 02:39:59;;;;;;;18.98;6.97;;;6.10;99.90;;;;;;5008252;28;20047;-77
2023/05/27 02:42:25;;;;;;;20.65;6.60;;;6.10;99.90;;;;;;5010035;28;20063;-77
2023/05/27 02:44:50;;;;;;;19.83;7.10;;;6.10;99.90;;;;;;4994590;28;20030;-77
2023/05/27 02:47:16;;;;;;;23.13;6.30;;;6.10;99.90;;;;;;4977534;28;20117;-78
2023/05/27 02:49:42;;;;;;;22.48;6.72;;;6.10;99.90;;;;;;5008174;28;20048;-77
2023/05/27 02:52:07;;;;;;;16.90;7.07;;;6.10;99.90;;;;;;5012053;28;20041;-78
2023/05/27 02:54:33;;;;;;;22.27;7.00;;;6.10;99.90;;;;;;5017910;28;20712;-78
2023/05/27 02:56:59;;;;;;;21.77;6.13;;;6.10;99.90;;;;;;4985886;28;20264;-77
2023/05/27 02:59:25;;;;;;;29.15;7.47;;;6.10;99.90;;;;;;5002922;28;20096;-77
2023/05/27 03:01:50;;;;;;;20.45;8.23;;;6.10;99.90;;;;;;4985669;28;20042;-77
2023/05/27 03:04:17;;;;;;;20.25;7.20;;;6.10;99.90;;;;;;4993935;28;20092;-77
2023/05/27 03:06:43;;;;;;;19.05;6.90;;;6.10;99.90;;;;;;4983900;28;20046;-77
2023/05/27 03:09:09;;;;;;;18.05;6.75;;;6.10;99.90;;;;;;4987891;28;20091;-78
2023/05/27 03:11:34;;;;;;;14.90;6.30;;;6.10;99.90;;;;;;5010084;28;20044;-77
2023/05/27 03:14:00;;;;;;;18.67;7.22;;;6.10;99.90;;;;;;5000895;28;20045;-77
2023/05/27 03:16:26;;;;;;;19.17;7.05;;;6.10;99.90;;;;;;4984131;28;20045;-78
2023/05/27 03:18:51;;;;;;;20.38;7.88;;;6.20;99.90;;;;;;5002351;28;20461;-78
2023/05/27 03:21:17;;;;;;;19.50;6.40;;;6.20;99.90;;;;;;4976253;28;20049;-77
2023/05/27 03:23:43;;;;;;;19.23;8.50;;;6.30;99.90;;;;;;5002340;28;20075;-77
2023/05/27 03:26:09;;;;;;;26.60;7.47;;;6.40;99.90;;;;;;4986058;28;20459;-78
2023/05/27 03:28:34;;;;;;;22.60;7.45;;;6.40;99.90;;;;;;4984686;28;20116;-78
2023/05/27 03:31:00;;;;;;;23.90;7.40;;;6.40;99.90;;;;;;4993525;28;20061;-77
2023/05/27 03:33:26;;;;;;;23.80;8.05;;;6.50;99.90;;;;;;4983470;28;20034;-77
2023/05/27 03:35:51;;;;;;;18.50;7.22;;;6.60;99.90;;;;;;4987721;28;20037;-77
2023/05/27 03:38:17;;;;;;;26.02;7.45;;;6.70;99.90;;;;;;5002473;28;20037;-77
2023/05/27 03:40:43;;;;;;;20.02;6.40;;;6.70;99.90;;;;;;5023333;28;20060;-78
2023/05/27 03:43:09;;;;;;;19.38;7.53;;;6.80;99.90;;;;;;4988939;28;20415;-77
2023/05/27 03:45:34;;;;;;;22.73;7.25;;;6.80;99.90;;;;;;4985519;28;20037;-77
2023/05/27 03:48:00;;;;;;;21.25;6.65;;;6.80;99.90;;;;;;4971765;28;20041;-77
2023/05/27 03:50:26;;;;;;;20.85;7.30;;;6.90;99.90;;;;;;4984270;28;20034;-77
2023/05/27 03:52:51;;;;;;;19.45;6.95;;;6.90;99.90;;;;;;4987531;28;20042;-77
2023/05/27 03:55:17;;;;;;;21.70;6.38;;;6.90;99.90;;;;;;5019439;28;20034;-77
2023/05/27 03:57:43;;;;;;;18.17;5.72;;;6.90;99.90;;;;;;5005173;28;20103;-77
2023/05/27 04:00:12;;;;;;;26.08;7.20;;;7.00;99.90;;;;;;4979879;28;20486;-78
2023/05/27 04:02:39;;;;;;;20.13;7.22;;;6.90;99.90;;;;;;4987228;28;20410;-78
2023/05/27 04:05:05;;;;;;;17.20;5.80;;;7.00;99.90;;;;;;5008254;28;20054;-78
2023/05/27 04:07:31;;;;;;;15.52;6.03;;;6.90;99.90;;;;;;4974089;28;20042;-77
2023/05/27 04:09:57;;;;;;;21.08;6.40;;;6.90;99.90;;;;;;4969863;28;20399;-77
2023/05/27 04:12:23;;;;;;;15.88;5.85;;;6.90;99.90;;;;;;4998834;28;20041;-78
2023/05/27 04:14:49;;;;;;;21.25;6.18;;;6.90;99.90;;;;;;5003047;28;20074;-78
2023/05/27 04:17:15;;;;;;;17.98;6.57;;;6.90;99.90;;;;;;4998121;28;20054;-78
2023/05/27 04:19:41;;;;;;;17.95;6.28;;;6.80;99.90;;;;;;4980408;28;20554;-77
2023/05/27 04:22:07;;;;;;;17.95;6.22;;;6.80;99.90;;;;;;5001816;28;20061;-78
2023/05/27 04:24:33;;;;;;;18.75;6.60;;;6.80;99.90;;;;;;4986767;28;20106;-77
2023/05/27 04:26:59;;;;;;;21.98;6.72;;;6.90;99.90;;;;;;4986220;28;20079;-77
2023/05/27 04:29:25;;;;;;;14.15;5.85;;;6.90;99.90;;;;;;4987000;28;20030;-77
2023/05/27 04:31:50;;;;;;;16.50;6.22;;;6.90;99.90;;;;;;4997386;28;20034;-77
2023/05/27 04:34:16;;;;;;;18.25;5.95;;;6.90;99.90;;;;;;5007584;28;20050;-77
2023/05/27 04:36:43;;;;;;;22.05;6.75;;;6.90;99.90;;;;;;4993819;28;20034;-77
2023/05/27 04:39:11;;;;;;;15.88;6.45;;;7.00;99.90;;;;;;5023436;28;20518;-78
2023/05/27 04:41:39;;;;;;;17.77;6.18;;;7.00;99.90;;;;;;4997522;28;20049;-77
2023/05/27 04:44:06;;;;;;;16.50;6.63;;;7.00;99.90;;;;;;5012767;28;20057;-77
2023/05/27 04:46:31;;;;;;;20.83;6.47;;;7.10;99.90;;;;;;4977123;28;20601;-77
2023/05/27 04:48:57;;;;;;;19.17;6.00;;;7.10;99.90;;;;;;4977373;28;20088;-77
2023/05/27 04:51:23;;;;;;;27.17;6.35;;;7.10;99.90;;;;;;4992844;28;20045;-77
2023/05/27 04:53:48;;;;;;;18.95;6.15;;;7.20;99.90;;;;;;4993007;28;20038;-77
2023/05/27 04:56:16;;;;;;;22.80;6.35;;;7.20;99.90;;;;;;5008877;28;20136;-79
2023/05/27 04:58:44;;;;;;;11.15;6.32;;;7.30;99.90;;;;;;4977074;28;20040;-79
2023/05/27 05:01:17;;;;;;;21.02;6.25;;;7.30;99.90;;;;;;4991925;28;20054;-79
2023/05/27 05:04:02;;;;;;;16.38;6.15;;;7.30;99.90;;;;;;4974955;28;20131;-77
2023/05/27 05:06:28;;;;;;;17.95;6.10;;;7.40;99.90;;;;;;4993876;28;20049;-78
2023/05/27 05:08:54;;;;;;;22.42;6.90;;;7.40;99.90;;;;;;5013519;28;20391;-79
2023/05/27 05:11:19;;;;;;;14.32;6.00;;;7.50;99.90;;;;;;4995307;28;20501;-79
2023/05/27 05:13:45;;;;;;;14.70;5.95;;;7.60;99.90;;;;;;5001776;28;20049;-79
2023/05/27 05:16:11;;;;;;;16.73;6.38;;;7.60;99.90;;;;;;4990856;28;20038;-79
2023/05/27 05:18:36;;;;;;;19.35;6.20;;;7.70;99.90;;;;;;5011296;28;20049;-79
2023/05/27 05:21:02;;;;;;;23.08;6.25;;;7.80;99.90;;;;;;4985941;28;20043;-78
2023/05/27 05:23:28;;;;;;;21.23;6.25;;;7.90;99.90;;;;;;4994021;28;20046;-79
2023/05/27 05:25:58;;;;;;;22.10;6.57;;;7.90;99.90;;;;;;5018839;28;20124;-79
2023/05/27 05:28:24;;;;;;;14.73;6.13;;;8.00;99.90;;;;;;4980741;28;20036;-79
2023/05/27 05:30:49;;;;;;;19.35;6.45;;;8.10;99.90;;;;;;4993456;28;20042;-79
2023/05/27 05:33:15;;;;;;;24.65;5.78;;;8.20;99.90;;;;;;4990250;28;20167;-79
2023/05/27 05:35:41;;;;;;;21.52;5.80;;;8.30;99.90;;;;;;5001021;28;20033;-79
2023/05/27 05:38:07;;;;;;;23.65;6.90;;;8.30;99.90;;;;;;4973838;28;20037;-78
2023/05/27 05:40:32;;;;;;;16.73;5.90;;;8.40;99.90;;;;;;4993078;28;20033;-78
2023/05/27 05:42:58;;;;;;;33.45;6.20;;;8.50;99.90;;;;;;4987265;28;20033;-78
2023/05/27 05:45:25;;;;;;;17.70;5.78;;;8.60;99.90;;;;;;4981956;28;20384;-78
2023/05/27 05:47:51;;;;;;;18.15;5.47;;;8.70;99.90;;;;;;4983822;28;20052;-78
2023/05/27 05:50:16;;;;;;;24.70;7.03;;;8.80;99.90;;;;;;5008986;28;20473;-78
2023/05/27 05:52:42;;;;;;;23.92;6.47;;;8.90;99.90;;;;;;4972836;28;20117;-78
2023/05/27 05:55:08;;;;;;;24.00;5.60;;;9.00;99.90;;;;;;5001288;28;20117;-78
2023/05/27 05:57:34;;;;;;;18.92;5.88;;;9.10;99.90;;;;;;4995106;28;20080;-78
2023/05/27 06:00:00;;;;;;;20.55;5.47;;;9.20;99.90;;;;;;4987047;28;20494;-78
2023/05/27 06:02:25;;;;;;;21.67;5.65;;;9.30;99.90;;;;;;4994942;28;20060;-79
2023/05/27 06:04:51;;;;;;;23.25;5.82;;;9.40;99.90;;;;;;4983306;28;20762;-78
2023/05/27 06:07:17;;;;;;;20.75;5.65;;;9.50;99.90;;;;;;4987808;28;20057;-78
2023/05/27 06:09:43;;;;;;;24.45;6.00;;;9.60;99.90;;;;;;4988946;28;20068;-79
2023/05/27 06:12:08;;;;;;;17.38;4.80;;;9.70;99.90;;;;;;4987155;28;20036;-79
2023/05/27 06:14:34;;;;;;;16.42;5.43;;;9.70;99.90;;;;;;5006298;28;20061;-79
2023/05/27 06:17:00;;;;;;;18.35;5.70;;;9.80;99.90;;;;;;4981205;28;20045;-79
2023/05/27 06:19:26;;;;;;;20.23;5.55;;;9.80;99.90;;;;;;4989270;28;20034;-79
2023/05/27 06:21:51;;;;;;;21.92;5.15;;;9.90;99.90;;;;;;4976109;28;20045;-79
2023/05/27 06:24:19;;;;;;;19.90;4.95;;;9.90;99.90;;;;;;4978024;28;20133;-79
2023/05/27 06:26:45;;;;;;;21.15;5.20;;;9.90;99.90;;;;;;4984244;28;20065;-78
2023/05/27 06:29:10;;;;;;;17.05;5.65;;;9.90;99.90;;;;;;5004372;28;20088;-78
2023/05/27 06:31:36;;;;;;;15.43;5.20;;;10.00;99.90;;;;;;4989811;28;20038;-79
2023/05/27 06:34:02;;;;;;;24.92;6.25;;;10.10;99.90;;;;;;4986942;28;20030;-79
2023/05/27 06:36:28;;;;;;;16.08;5.32;;;10.20;99.90;;;;;;5005968;28;21004;-79
2023/05/27 06:38:54;;;;;;;18.85;5.95;;;10.30;99.90;;;;;;4987582;28;20034;-79
2023/05/27 06:41:19;;;;;;;23.35;5.65;;;10.40;99.90;;;;;;4990426;28;20430;-79
2023/05/27 06:43:45;;;;;;;14.80;5.88;;;10.50;99.90;;;;;;4975789;28;20038;-79
2023/05/27 06:46:11;;;;;;;17.85;5.47;;;10.70;99.90;;;;;;4968731;28;20035;-79
2023/05/27 06:48:37;;;;;;;16.20;5.53;;;10.80;99.90;;;;;;4982117;28;20842;-79
2023/05/27 06:51:03;;;;;;;15.65;5.18;;;11.00;99.90;;;;;;4999446;28;20037;-79
2023/05/27 06:53:28;;;;;;;25.08;8.13;;;11.10;99.90;;;;;;5006569;28;20102;-79
2023/05/27 06:55:55;;;;;;;20.13;5.70;;;11.20;99.90;;;;;;4988809;28;20145;-79
2023/05/27 06:58:21;;;;;;;16.75;5.70;;;11.30;99.90;;;;;;4989935;28;20030;-79
2023/05/27 07:00:46;;;;;;;16.85;5.28;;;11.50;99.90;;;;;;4975222;28;20036;-79
2023/05/27 07:03:12;;;;;;;18.55;4.82;;;11.60;99.90;;;;;;5007654;28;20042;-79
2023/05/27 07:05:38;;;;;;;21.08;5.78;;;11.70;99.90;;;;;;4997197;28;20099;-79
2023/05/27 07:08:06;;;;;;;20.27;5.18;;;11.70;99.90;;;;;;4997881;28;20042;-82
2023/05/27 07:10:31;;;;;;;21.13;5.05;;;11.90;99.90;;;;;;5012244;28;20037;-80
2023/05/27 07:12:57;;;;;;;20.55;6.30;;;12.00;99.90;;;;;;4999305;28;20785;-82
2023/05/27 07:15:23;;;;;;;15.70;5.60;;;12.10;99.90;;;;;;5004938;28;20397;-80
2023/05/27 07:17:48;;;;;;;16.30;6.22;;;12.20;99.90;;;;;;5001108;28;20095;-81
2023/05/27 07:20:14;;;;;;;18.33;5.35;;;12.40;99.90;;;;;;4997428;28;20073;-80
2023/05/27 07:22:40;;;;;;;17.83;5.68;;;12.50;99.90;;;;;;5010520;28;20041;-81
2023/05/27 07:25:06;;;;;;;22.05;5.63;;;12.70;99.90;;;;;;4987840;28;20041;-81
2023/05/27 07:27:32;;;;;;;15.85;5.22;;;12.80;99.90;;;;;;4997813;28;20074;-82
2023/05/27 07:29:58;;;;;;;22.67;5.88;;;12.90;99.90;;;;;;5011385;28;20462;-82
2023/05/27 07:32:23;;;;;;;17.73;6.93;;;13.00;99.90;;;;;;4999794;28;20115;-83
2023/05/27 07:34:49;;;;;;;24.02;5.95;;;13.10;99.90;;;;;;4998993;28;20120;-83
2023/05/27 07:37:15;;;;;;;28.67;5.20;;;13.20;99.90;;;;;;5012704;28;20533;-83
2023/05/27 07:39:41;;;;;;;13.68;5.10;;;13.30;99.90;;;;;;5011086;28;20042;-83
2023/05/27 07:42:06;;;;;;;19.02;5.80;;;13.40;99.90;;;;;;4996349;28;20056;-83
2023/05/27 07:44:32;;;;;;;17.35;5.53;;;13.40;99.90;;;;;;5011675;28;20048;-83
2023/05/27 07:46:58;;;;;;;18.30;6.22;;;13.50;99.90;;;;;;5011623;28;20124;-83
2023/05/27 07:49:25;;;;;;;17.48;5.93;;;13.60;99.90;;;;;;5011044;28;20096;-83
2023/05/27 07:51:50;;;;;;;13.25;5.30;;;13.70;99.90;;;;;;4960848;28;20117;-82
2023/05/27 07:54:16;;;;;;;16.58;5.55;;;13.80;99.90;;;;;;4998824;28;20761;-82
2023/05/27 07:56:42;;;;;;;16.52;5.55;;;13.90;99.90;;;;;;4995711;28;20067;-82
2023/05/27 07:59:07;;;;;;;18.98;5.40;;;14.00;99.90;;;;;;5010176;28;20038;-82
2023/05/27 08:01:33;;;;;;;18.67;6.25;;;14.20;99.90;;;;;;5006359;28;20076;-82
2023/05/27 08:03:59;;;;;;;16.02;5.57;;;14.30;99.90;;;;;;4991762;28;20046;-82
2023/05/27 08:06:25;;;;;;;13.65;5.22;;;14.30;99.90;;;;;;4988152;28;20041;-82
2023/05/27 08:08:51;;;;;;;24.20;6.03;;;14.40;99.90;;;;;;4985198;28;20042;-82
2023/05/27 08:11:17;;;;;;;17.02;5.00;;;14.50;99.90;;;;;;4966204;28;20411;-82
2023/05/27 08:13:42;;;;;;;18.60;5.45;;;14.60;99.90;;;;;;5011348;28;20045;-82
2023/05/27 08:16:09;;;;;;;12.55;4.93;;;14.90;99.90;;;;;;4977994;28;20203;-82
2023/05/27 08:18:36;;;;;;;17.90;5.22;;;15.10;99.90;;;;;;4973925;28;20071;-81
2023/05/27 08:21:02;;;;;;;17.67;5.40;;;15.20;99.90;;;;;;4979199;28;20131;-81
2023/05/27 08:23:27;;;;;;;18.27;5.50;;;15.40;99.90;;;;;;4977676;28;20092;-82
2023/05/27 08:25:53;;;;;;;14.95;5.57;;;15.50;99.90;;;;;;4977877;28;20045;-81
2023/05/27 08:28:19;;;;;;;13.43;4.85;;;15.50;99.90;;;;;;4978993;28;20042;-81
2023/05/27 08:30:44;;;;;;;16.92;4.72;;;15.60;99.90;;;;;;4980410;28;20073;-81
2023/05/27 08:33:10;;;;;;;18.20;5.80;;;15.80;99.90;;;;;;5005567;28;20175;-81
2023/05/27 08:35:36;;;;;;;13.35;4.65;;;16.00;99.90;;;;;;4977897;28;20153;-81
2023/05/27 08:38:01;;;;;;;16.80;4.97;;;16.10;99.90;;;;;;4989425;28;20057;-79
2023/05/27 08:40:27;;;;;;;19.25;5.05;;;16.20;99.90;;;;;;4973083;28;20053;-80
2023/05/27 08:42:53;;;;;;;14.90;5.32;;;16.30;99.90;;;;;;5000135;28;20140;-80
2023/05/27 08:45:19;;;;;;;16.52;5.40;;;16.50;99.90;;;;;;4995095;28;20120;-80
2023/05/27 08:47:45;;;;;;;18.90;4.90;;;16.50;99.90;;;;;;4979277;28;20117;-81
2023/05/27 08:50:11;;;;;;;20.95;5.82;;;16.60;99.90;;;;;;4982930;28;20042;-80
2023/05/27 08:52:51;;;;;;;14.75;5.18;;;16.70;99.90;;;;;;4973780;28;20486;-80
2023/05/27 08:55:23;;;;;;;19.23;5.07;;;16.90;99.90;;;;;;4994083;28;20052;-80
2023/05/27 08:57:55;;;;;;;17.57;4.97;;;16.90;99.90;;;;;;4987032;28;20567;-80
2023/05/27 09:00:21;;;;;;;;;;;17.10;99.90;;;;;;4975244;28;20081;-79
2023/05/27 09:02:47;;;;;;;14.20;4.90;;;17.30;99.90;;;;;;4990828;28;20011;-80
2023/05/27 09:05:16;;;;;;;18.23;5.60;;;17.30;99.90;;;;;;4999863;28;20057;-79
2023/05/27 09:07:42;;;;;;;19.77;5.35;;;17.30;99.90;;;;;;5009081;28;20138;-80
2023/05/27 09:10:08;;;;;;;12.18;5.45;;;17.30;99.90;;;;;;5018070;28;20026;-80
2023/05/27 09:12:35;;;;;;;16.73;5.22;;;17.30;99.90;;;;;;4998665;28;20135;-80
2023/05/27 09:15:05;;;;;;;16.75;5.18;;;17.50;99.90;;;;;;5017600;28;20045;-79
2023/05/27 09:17:31;;;;;;;17.02;5.13;;;17.70;99.90;;;;;;4994773;28;20037;-79
2023/05/27 09:19:57;;;;;;;16.40;5.70;;;17.80;99.90;;;;;;5019894;28;20056;-79
2023/05/27 09:22:30;;;;;;;17.35;5.28;;;17.80;99.90;;;;;;4969202;28;20434;-79
2023/05/27 09:24:56;;;;;;;15.45;5.03;;;17.90;99.90;;;;;;5011477;28;20099;-79
2023/05/27 09:27:30;;;;;;;19.23;5.20;;;17.90;99.90;;;;;;5019868;28;20049;-79
2023/05/27 09:29:57;;;;;;;16.30;4.82;;;18.10;99.50;;;;;;4988335;28;20116;-80
2023/05/27 09:32:27;;;;;;;18.27;5.00;;;18.10;99.90;;;;;;5017392;28;20116;-80
2023/05/27 09:34:57;;;;;;;19.60;5.18;;;18.30;99.70;;;;;;5015643;28;20044;-80
2023/05/27 09:37:31;;;;;;;10.75;4.35;;;18.40;98.20;;;;;;5018544;28;20067;-80
2023/05/27 09:40:05;;;;;;;12.63;4.95;;;18.50;99.00;;;;;;5020394;28;20052;-81
2023/05/27 09:42:44;;;;;;;15.65;5.32;;;18.60;97.70;;;;;;5004490;28;20041;-80
2023/05/27 09:45:14;;;;;;;15.88;5.18;;;18.70;98.00;;;;;;5008489;28;20037;-80
2023/05/27 09:47:41;;;;;;;12.30;5.00;;;18.80;96.30;;;;;;5014170;28;20084;-80
2023/05/27 09:50:14;;;;;;;15.13;5.38;;;18.80;97.40;;;;;;5013128;28;20065;-78
2023/05/27 09:52:41;;;;;;;23.02;5.95;;;18.80;97.40;;;;;;5014313;28;20155;-78
2023/05/27 09:55:09;;;;;;;16.13;4.50;;;18.90;97.70;;;;;;5009646;28;20037;-77
2023/05/27 09:57:35;;;;;;;18.63;5.00;;;19.00;97.40;;;;;;5000667;28;20080;-76
2023/05/27 10:00:12;;;;;;;15.65;4.97;;;19.20;97.20;;;;;;5012492;28;20033;-76
2023/05/27 10:02:59;;;;;;;16.15;5.32;;;19.50;96.60;;;;;;4998837;28;20053;-74
2023/05/27 10:05:27;;;;;;;18.58;5.45;;;19.50;96.60;;;;;;5018269;28;20057;-78
2023/05/27 10:07:53;;;;;;;16.52;5.47;;;19.50;97.10;;;;;;4991702;28;20045;-77
2023/05/27 10:10:20;;;;;;;16.40;6.43;;;19.70;96.70;;;;;;5015092;28;20454;-77
2023/05/27 10:12:48;;;;;;;15.13;5.32;;;19.60;96.30;;;;;;4984961;28;20104;-76
2023/05/27 10:15:45;;;;;;;17.52;5.38;;;19.70;96.60;;;;;;5002537;28;20030;-77
2023/05/27 10:18:30;;;;;;;13.15;5.90;;;19.80;95.30;;;;;;5007643;28;20045;-79
2023/05/27 10:21:03;;;;;;;14.05;5.50;;;19.90;94.90;;;;;;5006596;28;20056;-77
2023/05/27 10:23:31;;;;;;;15.77;5.97;;;19.80;94.90;;;;;;4993561;28;20040;-78
2023/05/27 10:26:01;;;;;;;14.85;5.75;;;20.00;95.50;;;;;;4981926;28;20049;-75
2023/05/27 10:28:32;;;;;;;19.50;5.68;;;20.10;95.20;;;;;;4995957;28;20037;-77
2023/05/27 10:31:18;;;;;;;20.60;5.67;;;20.00;93.80;;;;;;4992598;28;20045;-76
2023/05/27 10:33:47;;;;;;;13.82;4.72;;;20.20;95.00;;;;;;5000280;28;20398;-77
2023/05/27 10:36:14;;;;;;;15.38;6.32;;;20.40;94.60;;;;;;5004087;28;20045;-77
2023/05/27 10:38:55;;;;;;;14.40;4.70;;;20.60;94.70;;;;;;5018603;28;20045;-77
2023/05/27 10:41:22;;;;;;;15.70;5.55;;;20.70;93.00;;;;;;4991607;28;20042;-78
2023/05/27 10:43:58;;;;;;;13.35;5.07;;;20.50;93.30;;;;;;5008952;28;20045;-78
2023/05/27 10:46:25;;;;;;;21.92;5.90;;;20.70;92.70;;;;;;5005660;28;20042;-78
2023/05/27 10:48:51;;;;;;;12.15;4.75;;;20.70;92.40;;;;;;5003368;28;20048;-79
2023/05/27 10:51:17;;;;;;;17.88;5.53;;;20.70;92.60;;;;;;5016210;28;20042;-78
2023/05/27 10:53:42;;;;;;;12.50;5.05;;;20.90;92.70;;;;;;4972452;28;20029;-78
2023/05/27 10:56:08;;;;;;;13.93;5.00;;;21.10;92.20;;;;;;4999445;28;20053;-78
2023/05/27 10:58:36;;;;;;;16.40;6.38;;;21.20;92.20;;;;;;5018930;28;20125;-78
2023/05/27 11:01:11;;;;;;;17.30;5.60;;;21.30;91.90;;;;;;5009215;28;20034;-78
2023/05/27 11:03:45;;;;;;;17.50;5.60;;;21.30;90.20;;;;;;4995453;28;20060;-77
2023/05/27 11:06:12;;;;;;;18.77;6.72;;;21.10;90.60;;;;;;5013655;28;20053;-78
2023/05/27 11:08:38;;;;;;;15.75;5.00;;;21.10;90.90;;;;;;5027353;28;20088;-79
2023/05/27 11:11:09;;;;;;;11.88;5.15;;;21.20;90.90;;;;;;5001171;28;20069;-79
2023/05/27 11:13:36;;;;;;;16.25;5.57;;;21.30;90.80;;;;;;4988994;28;20033;-79
2023/05/27 11:16:04;;;;;;;12.07;5.50;;;21.50;89.70;;;;;;4996592;28;20571;-79
2023/05/27 11:18:42;;;;;;;15.43;5.30;;;21.50;90.20;;;;;;5011474;28;20041;-80
2023/05/27 11:21:09;;;;;;;25.35;5.50;;;21.40;87.00;;;;;;5000280;28;20041;-79
2023/05/27 11:23:43;;;;;;;20.25;4.50;;;21.40;89.30;;;;;;5008455;28;20049;-79
2023/05/27 11:26:22;;;;;;;22.50;5.65;;;21.60;89.10;;;;;;5003496;28;20057;-79
2023/05/27 11:28:50;;;;;;;9.20;4.25;;;21.50;87.40;;;;;;5012233;28;20457;-79
2023/05/27 11:31:17;;;;;;;18.52;5.15;;;21.70;86.90;;;;;;5010830;28;20437;-79
2023/05/27 11:33:44;;;;;;;13.38;4.85;;;21.70;87.30;;;;;;5030856;28;20091;-79
2023/05/27 11:36:14;;;;;;;17.85;5.20;;;21.80;86.50;;;;;;4979023;28;20076;-79
2023/05/27 11:38:52;;;;;;;16.92;5.38;;;21.90;85.60;;;;;;5009713;28;20041;-78
2023/05/27 11:41:22;;;;;;;12.57;4.35;;;21.90;85.00;;;;;;5009675;28;20094;-79
2023/05/27 11:44:04;;;;;;;21.98;5.78;;;22.00;87.10;;;;;;5010027;28;20041;-78
2023/05/27 11:46:38;;;;;;;16.42;5.03;;;22.10;86.30;;;;;;5009689;28;20522;-78
2023/05/27 11:49:08;;;;;;;10.55;4.80;;;22.20;86.60;;;;;;5014262;28;20479;-79
2023/05/27 11:51:36;;;;;;;17.92;5.22;;;22.30;85.80;;;;;;5021490;28;20084;-79
2023/05/27 11:54:02;;;;;;;22.92;5.70;;;22.20;83.90;;;;;;4987030;28;20475;-78
2023/05/27 11:56:28;;;;;;;39.90;6.15;;;22.50;85.50;;;;;;5004878;28;20088;-79
2023/05/27 11:58:55;;;;;;;21.17;5.50;;;22.60;84.20;;;;;;5017821;28;20041;-79
2023/05/27 12:01:21;;;;;;;18.80;6.53;;;22.60;82.10;;;;;;5021593;28;20049;-79
2023/05/27 12:03:47;;;;;;;16.10;4.95;;;22.50;82.30;;;;;;5023604;28;20077;-79
2023/05/27 12:06:13;;;;;;;15.40;5.47;;;22.60;83.00;;;;;;4996691;28;20085;-79
2023/05/27 12:08:38;;;;;;;21.08;5.82;;;22.70;83.10;;;;;;4975871;28;20057;-79
2023/05/27 12:11:04;;;;;;;17.50;4.50;;;22.70;82.10;;;;;;4990040;28;20034;-80
2023/05/27 12:13:31;;;;;;;11.93;4.50;;;22.80;81.50;;;;;;4973138;28;20072;-80
2023/05/27 12:15:57;;;;;;;12.43;4.95;;;23.00;83.90;;;;;;5000368;28;20081;-79
2023/05/27 12:18:23;;;;;;;14.13;5.05;;;23.20;81.80;;;;;;4986522;28;20398;-79
2023/05/27 12:20:50;;;;;;;28.77;6.00;;;23.30;81.10;;;;;;4973491;28;20046;-79
2023/05/27 12:23:15;;;;;;;14.40;4.68;;;23.30;81.20;;;;;;4979361;28;20052;-77
2023/05/27 12:25:41;;;;;;;12.30;4.50;;;23.50;81.20;;;;;;4971824;28;20042;-77
2023/05/27 12:28:08;;;;;;;11.77;4.47;;;23.50;80.30;;;;;;4991023;28;20042;-78
2023/05/27 12:30:35;;;;;;;12.73;5.22;;;23.50;79.00;;;;;;4992941;28;20049;-78
2023/05/27 12:33:05;;;;;;;15.82;4.63;;;23.60;79.40;;;;;;4976064;28;20049;-78
2023/05/27 12:35:31;;;;;;;15.27;5.25;;;23.50;77.30;;;;;;4994022;28;20048;-77
2023/05/27 12:37:57;;;;;;;17.48;5.45;;;23.50;78.20;;;;;;4995321;28;20100;-78
2023/05/27 12:40:23;;;;;;;10.75;4.40;;;23.50;77.80;;;;;;4991619;28;20038;-78
2023/05/27 12:42:49;;;;;;;12.88;4.95;;;23.50;77.90;;;;;;4972476;28;20396;-78
2023/05/27 12:45:15;;;;;;;13.57;4.95;;;23.70;78.00;;;;;;5009250;28;20069;-78